createdAt,value
2023-02-27T00:00:19.737Z,50.33
2023-02-27T00:05:21.458Z,50.61
2023-02-27T00:10:23.014Z,50.22
2023-02-27T00:15:24.722Z,49.49
2023-02-27T00:20:29.683Z,49.62
2023-02-27T00:25:32.162Z,49.91
2023-02-27T00:30:33.762Z,49.95
2023-02-27T00:35:35.364Z,49.76
2023-02-27T00:40:36.919Z,50.78
2023-02-27T00:45:38.386Z,50.07
2023-02-27T00:50:39.883Z,50.46
2023-02-27T00:55:41.415Z,50.19
2023-02-27T01:00:43.533Z,50.74
2023-02-27T01:05:45.012Z,50.75
2023-02-27T01:10:46.833Z,50.37
2023-02-27T01:15:48.319Z,50.99
2023-02-27T01:20:56.305Z,50.08
2023-02-27T01:25:57.883Z,50.23
2023-02-27T01:30:59.435Z,51.00
2023-02-27T01:36:01.046Z,50.66
2023-02-27T01:41:02.912Z,50.64
2023-02-27T01:46:07.105Z,50.71
2023-02-27T01:51:16.666Z,50.51
2023-02-27T01:56:21.017Z,49.41
2023-02-27T02:01:23.196Z,49.66
2023-02-27T02:06:24.779Z,49.30
2023-02-27T02:11:27.445Z,48.61
2023-02-27T02:17:10.974Z,49.39
2023-02-27T02:22:39.701Z,49.13
2023-02-27T02:27:50.923Z,49.71
2023-02-27T02:33:20.290Z,50.18
2023-02-27T02:38:50.826Z,50.07
2023-02-27T02:44:03.298Z,51.41
2023-02-27T02:49:22.909Z,50.66
2023-02-27T02:54:47.979Z,50.68
2023-02-27T02:59:57.723Z,50.54
2023-02-27T03:05:05.447Z,50.19
2023-02-27T03:10:15.837Z,49.37
2023-02-27T03:15:36.601Z,48.98
2023-02-27T03:20:42.572Z,48.60
2023-02-27T03:25:47.705Z,48.51
2023-02-27T03:31:00.999Z,49.29
2023-02-27T03:36:15.611Z,48.51
2023-02-27T03:41:29.707Z,48.28
2023-02-27T03:46:45.936Z,48.46
2023-02-27T03:51:47.495Z,48.02
2023-02-27T03:57:00.606Z,47.76
2023-02-27T04:02:03.885Z,47.18
2023-02-27T04:07:15.636Z,46.84
2023-02-27T04:12:49.398Z,47.07
2023-02-27T04:17:57.884Z,47.42
2023-02-27T04:23:06.324Z,47.90
2023-02-27T04:28:22.198Z,47.46
2023-02-27T04:33:26.702Z,47.37
2023-02-27T04:38:52.731Z,47.69
2023-02-27T04:43:55.633Z,47.68
2023-02-27T04:49:08.462Z,48.09
2023-02-27T04:54:14.502Z,49.15
2023-02-27T04:59:24.873Z,48.49
2023-02-27T05:04:29.805Z,48.25
2023-02-27T05:09:46.980Z,48.51
2023-02-27T05:14:58.489Z,48.03
2023-02-27T05:20:01.253Z,47.92
2023-02-27T05:25:08.765Z,47.77
2023-02-27T05:30:51.845Z,47.82
2023-02-27T05:36:10.231Z,48.32
2023-02-27T05:41:20.342Z,48.36
2023-02-27T05:46:27.447Z,48.40
2023-02-27T05:51:35.340Z,48.04
2023-02-27T05:56:38.315Z,48.36
2023-02-27T06:01:40.457Z,48.59
2023-02-27T06:06:42.055Z,49.09
2023-02-27T06:11:43.638Z,48.56
2023-02-27T06:16:45.185Z,48.95
2023-02-27T06:21:46.678Z,49.62
2023-02-27T06:26:48.125Z,49.07
2023-02-27T06:31:49.657Z,50.56
2023-02-27T06:36:51.205Z,50.44
2023-02-27T06:41:52.702Z,49.89
2023-02-27T06:46:54.161Z,49.48
2023-02-27T06:51:55.622Z,49.69
2023-02-27T06:56:57.270Z,49.46
2023-02-27T07:01:58.851Z,48.61
2023-02-27T07:07:34.631Z,48.61
2023-02-27T07:12:21.752Z,48.38
2023-02-27T07:17:23.239Z,49.02
2023-02-27T07:22:24.771Z,48.61
2023-02-27T07:27:26.301Z,48.59
2023-02-27T07:32:28.168Z,48.39
2023-02-27T07:37:29.740Z,48.34
2023-02-27T07:42:31.369Z,48.52
2023-02-27T07:47:32.848Z,48.03
2023-02-27T07:52:34.313Z,47.90
2023-02-27T07:57:35.789Z,47.93
2023-02-27T08:02:37.720Z,48.21
2023-02-27T08:07:39.239Z,48.24
2023-02-27T08:12:40.697Z,48.07
2023-02-27T08:17:42.171Z,47.53
2023-02-27T08:22:43.611Z,47.40
2023-02-27T08:27:45.109Z,47.70
2023-02-27T08:32:46.584Z,47.71
2023-02-27T08:37:48.118Z,47.30
2023-02-27T08:42:51.277Z,48.39
2023-02-27T08:47:52.984Z,48.05
2023-02-27T08:52:54.460Z,47.15
2023-02-27T08:57:55.944Z,48.31
2023-02-27T09:02:57.469Z,47.45
2023-02-27T09:07:58.982Z,46.73
2023-02-27T09:13:01.318Z,46.89
2023-02-27T09:18:02.876Z,46.79
2023-02-27T09:23:04.504Z,46.86
2023-02-27T09:28:05.977Z,47.17
2023-02-27T09:33:10.221Z,47.35
2023-02-27T09:38:11.681Z,46.79
2023-02-27T09:43:24.061Z,47.21
2023-02-27T09:48:39.194Z,47.58
2023-02-27T09:53:47.516Z,47.35
2023-02-27T09:59:01.167Z,47.60
2023-02-27T10:04:12.720Z,47.18
2023-02-27T10:09:29.938Z,47.54
2023-02-27T10:14:39.529Z,46.86
2023-02-27T10:19:45.092Z,47.26
2023-02-27T10:24:56.917Z,47.66
2023-02-27T10:30:23.526Z,47.74
2023-02-27T10:35:36.957Z,47.78
2023-02-27T10:40:41.159Z,47.79
2023-02-27T10:45:42.635Z,47.37
2023-02-27T10:50:46.750Z,47.47
2023-02-27T10:56:00.261Z,47.38
2023-02-27T11:01:07.724Z,47.90
2023-02-27T11:06:21.531Z,47.19
2023-02-27T11:11:28.504Z,47.11
2023-02-27T11:16:49.491Z,47.36
2023-02-27T11:22:01.772Z,46.92
2023-02-27T11:27:05.211Z,46.96
2023-02-27T11:32:13.950Z,47.41
2023-02-27T11:37:26.883Z,47.08
2023-02-27T11:42:34.544Z,47.12
2023-02-27T11:47:40.311Z,46.96
2023-02-27T11:52:44.770Z,47.30
2023-02-27T11:57:50.330Z,47.50
2023-02-27T12:03:00.934Z,46.62
2023-02-27T12:08:27.839Z,46.82
2023-02-27T12:13:33.534Z,46.49
2023-02-27T12:18:37.866Z,47.18
2023-02-27T12:23:46.447Z,47.58
2023-02-27T12:29:01.417Z,47.45
2023-02-27T12:34:08.900Z,48.42
2023-02-27T12:39:24.823Z,48.09
2023-02-27T12:44:53.776Z,48.15
2023-02-27T12:50:11.655Z,49.44
2023-02-27T12:55:26.023Z,49.37
2023-02-27T13:00:43.030Z,50.14
2023-02-27T13:05:48.031Z,50.58
2023-02-27T13:11:01.452Z,50.52
2023-02-27T13:16:02.847Z,52.68
2023-02-27T13:21:23.188Z,53.40
2023-02-27T13:26:38.394Z,54.06
2023-02-27T13:31:52.791Z,53.69
2023-02-27T13:37:12.592Z,54.17
2023-02-27T13:42:26.283Z,55.06
2023-02-27T13:47:30.715Z,56.01
2023-02-27T13:52:34.840Z,55.77
2023-02-27T13:57:37.921Z,56.29
2023-02-27T14:02:59.909Z,56.97
2023-02-27T14:08:16.404Z,56.35
2023-02-27T14:13:45.671Z,56.52
2023-02-27T14:18:54.755Z,57.16
2023-02-27T14:23:56.414Z,56.71
2023-02-27T14:28:57.888Z,57.24
2023-02-27T14:34:02.088Z,57.33
2023-02-27T14:39:04.191Z,56.12
2023-02-27T14:44:05.733Z,56.71
2023-02-27T14:49:18.812Z,56.05
2023-02-27T14:54:25.887Z,55.87
2023-02-27T15:00:03.215Z,56.64
2023-02-27T15:05:10.527Z,56.06
2023-02-27T15:10:26.388Z,55.59
2023-02-27T15:15:27.955Z,57.51
2023-02-27T15:20:32.849Z,57.27
2023-02-27T15:25:37.808Z,56.47
2023-02-27T15:30:39.344Z,56.04
2023-02-27T15:35:44.100Z,56.47
2023-02-27T15:40:45.637Z,56.33
2023-02-27T15:45:47.911Z,56.41
2023-02-27T15:50:53.873Z,56.40
2023-02-27T15:55:58.638Z,56.21
2023-02-27T16:01:07.679Z,55.71
2023-02-27T16:06:12.855Z,56.37
2023-02-27T16:11:43.468Z,56.84
2023-02-27T16:16:54.900Z,55.09
2023-02-27T16:22:13.753Z,55.36
2023-02-27T16:27:26.803Z,54.35
2023-02-27T16:32:35.006Z,54.56
2023-02-27T16:37:38.762Z,54.10
2023-02-27T16:42:40.599Z,54.04
2023-02-27T16:47:42.145Z,53.36
2023-02-27T16:52:43.655Z,52.60
2023-02-27T16:57:45.201Z,53.04
2023-02-27T17:02:46.685Z,53.30
2023-02-27T17:07:48.203Z,54.14
2023-02-27T17:12:49.794Z,55.43
2023-02-27T17:17:51.298Z,54.96
2023-02-27T17:22:52.897Z,55.09
2023-02-27T17:27:54.439Z,55.44
2023-02-27T17:32:56.558Z,55.62
2023-02-27T17:37:59.427Z,55.03
2023-02-27T17:43:00.937Z,55.29
2023-02-27T17:48:02.421Z,55.35
2023-02-27T17:53:03.904Z,56.12
2023-02-27T17:58:05.537Z,55.84
2023-02-27T18:03:07.004Z,56.50
2023-02-27T18:08:08.460Z,56.80
2023-02-27T18:13:09.950Z,56.53
2023-02-27T18:18:12.160Z,55.99
2023-02-27T18:23:14.570Z,55.71
2023-02-27T18:28:16.099Z,54.88
2023-02-27T18:33:17.689Z,55.08
2023-02-27T18:38:19.178Z,55.04
2023-02-27T18:43:20.702Z,54.17
2023-02-27T18:48:22.235Z,54.40
2023-02-27T18:53:23.731Z,53.33
2023-02-27T18:58:25.302Z,54.06
2023-02-27T19:03:27.781Z,53.70
2023-02-27T19:08:29.409Z,53.28
2023-02-27T19:13:30.855Z,53.39
2023-02-27T19:18:32.365Z,54.11
2023-02-27T19:23:33.965Z,54.24
2023-02-27T19:28:35.460Z,53.66
2023-02-27T19:33:37.132Z,54.79
2023-02-27T19:38:38.755Z,55.01
2023-02-27T19:43:41.267Z,55.73
2023-02-27T19:48:42.790Z,55.84
2023-02-27T19:53:46.214Z,55.90
2023-02-27T19:58:48.215Z,55.80
2023-02-27T20:03:49.739Z,56.00
2023-02-27T20:08:52.294Z,55.91
2023-02-27T20:13:53.746Z,56.51
2023-02-27T20:18:55.447Z,55.41
2023-02-27T20:23:58.016Z,56.16
2023-02-27T20:29:02.160Z,55.87
2023-02-27T20:34:04.671Z,55.74
2023-02-27T20:39:06.888Z,55.86
2023-02-27T20:44:08.894Z,55.73
2023-02-27T20:49:12.591Z,56.00
2023-02-27T20:54:16.079Z,56.14
2023-02-27T20:59:19.175Z,55.65
2023-02-27T21:04:26.522Z,55.74
2023-02-27T21:09:28.063Z,55.41
2023-02-27T21:14:29.558Z,55.81
2023-02-27T21:19:31.130Z,55.59
2023-02-27T21:24:32.595Z,55.24
2023-02-27T21:29:34.074Z,55.42
2023-02-27T21:34:35.588Z,55.23
2023-02-27T21:39:37.117Z,54.75
2023-02-27T21:44:38.663Z,54.97
2023-02-27T21:49:40.142Z,54.63
2023-02-27T21:54:41.659Z,54.92
2023-02-27T21:59:43.145Z,55.34
2023-02-27T22:04:44.627Z,54.24
2023-02-27T22:09:46.243Z,54.42
2023-02-27T22:14:48.480Z,54.56
2023-02-27T22:19:49.974Z,54.73
2023-02-27T22:24:51.420Z,54.14
2023-02-27T22:29:52.891Z,54.84
2023-02-27T22:34:58.348Z,54.01
2023-02-27T22:39:59.875Z,54.26
2023-02-27T22:45:01.362Z,54.43
2023-02-27T22:50:04.423Z,53.77
2023-02-27T22:55:06.622Z,54.19
2023-02-27T23:00:08.801Z,54.36
2023-02-27T23:05:10.677Z,53.76
2023-02-27T23:10:12.167Z,54.11
2023-02-27T23:15:13.766Z,54.01
2023-02-27T23:20:15.254Z,53.90
2023-02-27T23:25:16.744Z,53.97
2023-02-27T23:30:18.332Z,54.11
2023-02-27T23:35:19.801Z,53.51
2023-02-27T23:40:22.509Z,54.29
2023-02-27T23:45:24.087Z,53.90
2023-02-27T23:50:28.834Z,53.93
2023-02-27T23:55:32.648Z,53.27
